This is the latest recevied weather packets stored in our database for station/object PE1BMM-13. If no packets are shown the sender has not sent any weather packets the latest 10 day(s).
| Time | Temp. | Humidity | Pressure | Rain* | Wind** | Luminosity | Snow |
|---|---|---|---|---|---|---|---|
| 1777606341 | 11.11° C | 72% | 1026.2 hPa | 0 mm | - | - | - |
| 1777605141 | 11.11° C | 72% | 1026.4 hPa | 0 mm | - | - | - |
| 1777601536 | 11.67° C | 70% | 1026.3 hPa | 0 mm | - | - | - |
| 1777600337 | 12.22° C | 69% | 1026.3 hPa | 0 mm | - | - | - |
| 1777598537 | 12.22° C | 67% | 1026.5 hPa | 0 mm | - | - | - |
| 1777594933 | 12.78° C | 65% | 1026.4 hPa | 0 mm | - | - | - |
| 1777593729 | 13.33° C | 64% | 1026.4 hPa | 0 mm | - | - | - |
| 1777591010 | 13.89° C | 62% | 1026.5 hPa | 0 mm | - | - | - |
| 1777588923 | 12.78° C | 65% | 1026.2 hPa | 0 mm | - | - | - |
| 1777588899 | 12.78° C | 65% | 1026.3 hPa | 0 mm | - | - | - |
| 1777586523 | 12.78° C | 63% | 1026.4 hPa | 0 mm | - | - | - |
| 1777584723 | 13.33° C | 60% | 1026.3 hPa | 0 mm | - | - | - |
| 1777581118 | 13.89° C | 57% | 1026.2 hPa | 0 mm | - | - | - |
| 1777580519 | 13.89° C | 57% | 1026.3 hPa | 0 mm | - | - | - |
| 1777579918 | 14.44° C | 56% | 1026.2 hPa | 0 mm | - | - | - |
| 1777577518 | 15.56° C | 50% | 1026 hPa | 0 mm | - | - | - |
| 1777575712 | 15.56° C | 50% | 1025.8 hPa | 0 mm | - | - | - |
| 1777566699 | 19.44° C | 34% | 1025.9 hPa | 0 mm | - | - | - |
| 1777566099 | 19.44° C | 34% | 1025.9 hPa | 0 mm | - | - | - |
| 1777565502 | 19.44° C | 31% | 1026 hPa | 0 mm | - | - | - |
| 1777562499 | 19.44° C | 32% | 1026.3 hPa | 0 mm | - | - | - |
| 1777560057 | 18.89° C | 33% | 1027 hPa | 0 mm | - | - | - |
| 1777559181 | 18.89° C | 32% | 1026.9 hPa | 0 mm | - | - | - |
| 1777556493 | 18.33° C | 31% | 1027.4 hPa | 0 mm | - | - | - |
| 1777555889 | 18.33° C | 34% | 1027.6 hPa | 0 mm | - | - | - |
* Rain latest hour (hover to see other rain measurements)
** Current wind speed in m/s (hover to see current wind gust speed)